createdAt,value
2018-09-08T00:00:23.501Z,56.40
2018-09-08T00:02:51.491Z,56.60
2018-09-08T00:05:22.837Z,56.70
2018-09-08T00:07:50.778Z,56.90
2018-09-08T00:10:18.765Z,57.10
2018-09-08T00:12:46.848Z,57.30
2018-09-08T00:15:20.306Z,57.50
2018-09-08T00:17:53.744Z,57.90
2018-09-08T00:20:30.765Z,58.00
2018-09-08T00:23:04.225Z,57.80
2018-09-08T00:25:37.543Z,57.90
2018-09-08T00:28:10.716Z,57.90
2018-09-08T00:30:38.675Z,58.00
2018-09-08T00:33:06.623Z,58.20
2018-09-08T00:35:38.448Z,58.30
2018-09-08T00:38:06.456Z,58.20
2018-09-08T00:40:34.409Z,58.10
2018-09-08T00:43:02.387Z,58.20
2018-09-08T00:45:31.179Z,58.30
2018-09-08T00:47:59.160Z,58.00
2018-09-08T00:50:27.106Z,58.10
2018-09-08T00:52:55.065Z,58.00
2018-09-08T00:55:23.017Z,58.00
2018-09-08T00:57:50.988Z,57.90
2018-09-08T01:00:18.928Z,58.10
2018-09-08T01:02:46.913Z,58.60
2018-09-08T01:05:14.847Z,58.40
2018-09-08T01:07:42.797Z,58.40
2018-09-08T01:10:10.808Z,58.20
2018-09-08T01:12:38.818Z,58.20
2018-09-08T01:15:07.119Z,58.20
2018-09-08T01:17:35.089Z,58.80
2018-09-08T01:20:03.002Z,58.00
2018-09-08T01:22:30.967Z,58.00
2018-09-08T01:24:59.040Z,58.00
2018-09-08T01:27:28.040Z,58.10
2018-09-08T01:29:55.992Z,57.80
2018-09-08T01:32:23.961Z,57.90
2018-09-08T01:34:51.903Z,57.90
2018-09-08T01:37:19.856Z,58.10
2018-09-08T01:39:47.779Z,58.20
2018-09-08T01:42:15.804Z,58.10
2018-09-08T01:44:43.879Z,58.00
2018-09-08T01:47:11.839Z,57.50
2018-09-08T01:49:39.782Z,57.30
2018-09-08T01:52:07.845Z,57.30
2018-09-08T01:54:36.051Z,57.60
2018-09-08T01:57:03.988Z,57.30
2018-09-08T01:59:31.927Z,56.90
2018-09-08T02:01:59.866Z,57.30
2018-09-08T02:04:27.810Z,57.60
2018-09-08T02:06:55.760Z,57.60
2018-09-08T02:09:23.704Z,57.20
2018-09-08T02:11:51.694Z,57.50
2018-09-08T02:14:19.639Z,57.20
2018-09-08T02:16:47.579Z,57.50
2018-09-08T02:19:15.512Z,57.40
2018-09-08T02:21:43.514Z,57.20
2018-09-08T02:24:11.452Z,57.20
2018-09-08T02:26:39.448Z,57.00
2018-09-08T02:29:07.406Z,56.80
2018-09-08T02:31:35.326Z,56.80
2018-09-08T02:34:03.255Z,57.60
2018-09-08T02:36:31.205Z,56.90
2018-09-08T02:38:59.167Z,56.90
2018-09-08T02:41:27.090Z,56.80
2018-09-08T02:43:55.028Z,56.80
2018-09-08T02:46:23.001Z,56.80
2018-09-08T02:48:50.949Z,56.90
2018-09-08T02:51:18.079Z,56.90
2018-09-08T02:53:45.196Z,56.80
2018-09-08T02:56:12.312Z,56.80
2018-09-08T02:58:39.449Z,56.90
2018-09-08T03:01:06.824Z,57.10
2018-09-08T03:03:33.964Z,57.00
2018-09-08T03:06:01.066Z,56.40
2018-09-08T03:08:28.453Z,56.60
2018-09-08T03:10:55.568Z,56.60
2018-09-08T03:13:22.672Z,56.60
2018-09-08T03:15:49.849Z,56.50
2018-09-08T03:18:16.962Z,56.50
2018-09-08T03:20:44.092Z,56.40
2018-09-08T03:23:11.221Z,56.40
2018-09-08T03:25:38.363Z,56.50
2018-09-08T03:28:05.468Z,56.50
2018-09-08T03:30:32.581Z,56.60
2018-09-08T03:32:59.677Z,56.60
2018-09-08T03:35:26.812Z,56.70
2018-09-08T03:37:53.917Z,56.90
2018-09-08T03:40:21.032Z,56.80
2018-09-08T03:42:48.148Z,56.80
2018-09-08T03:45:15.251Z,56.90
2018-09-08T03:47:42.375Z,57.00
2018-09-08T03:50:09.504Z,57.20
2018-09-08T03:52:36.628Z,57.10
2018-09-08T03:55:03.769Z,57.20
2018-09-08T03:57:30.894Z,57.20
2018-09-08T03:59:58.010Z,57.30
2018-09-08T04:02:25.107Z,57.30
2018-09-08T04:04:53.338Z,57.30
2018-09-08T04:07:21.280Z,57.10
2018-09-08T04:09:49.213Z,57.00
2018-09-08T04:12:17.274Z,57.10
2018-09-08T04:14:45.207Z,57.00
2018-09-08T04:17:13.215Z,57.00
2018-09-08T04:19:41.146Z,57.00
2018-09-08T04:22:09.097Z,57.30
2018-09-08T04:24:37.022Z,57.20
2018-09-08T04:27:05.089Z,57.40
2018-09-08T04:29:33.135Z,57.60
2018-09-08T04:32:01.193Z,57.70
2018-09-08T04:34:29.162Z,57.90
2018-09-08T04:36:57.105Z,57.90
2018-09-08T04:39:25.221Z,58.00
2018-09-08T04:41:53.156Z,58.00
2018-09-08T04:44:21.091Z,58.50
2018-09-08T04:46:49.027Z,58.30
2018-09-08T04:49:17.027Z,58.60
2018-09-08T04:51:44.956Z,58.90
2018-09-08T04:54:12.927Z,59.60
2018-09-08T04:56:40.876Z,58.90
2018-09-08T04:59:08.857Z,58.90
2018-09-08T05:01:36.788Z,58.80
2018-09-08T05:04:04.816Z,58.60
2018-09-08T05:06:32.752Z,58.80
2018-09-08T05:09:00.694Z,58.90
2018-09-08T05:11:28.684Z,58.80
2018-09-08T05:13:56.705Z,58.70
2018-09-08T05:16:24.644Z,58.60
2018-09-08T05:18:52.607Z,58.70
2018-09-08T05:21:20.539Z,58.80
2018-09-08T05:23:48.889Z,58.70
2018-09-08T05:26:16.854Z,58.60
2018-09-08T05:28:44.774Z,58.60
2018-09-08T05:31:13.030Z,58.60
2018-09-08T05:33:41.095Z,58.60
2018-09-08T05:36:09.043Z,58.60
2018-09-08T05:38:36.988Z,58.40
2018-09-08T05:41:05.070Z,58.20
2018-09-08T05:43:33.039Z,58.30
2018-09-08T05:46:01.037Z,58.20
2018-09-08T05:48:28.997Z,58.10
2018-09-08T05:50:56.962Z,57.80
2018-09-08T05:53:24.912Z,57.50
2018-09-08T05:55:52.858Z,57.20
2018-09-08T05:58:20.893Z,56.80
2018-09-08T06:00:48.844Z,56.40
2018-09-08T06:03:16.798Z,56.50
2018-09-08T06:05:44.742Z,55.70
2018-09-08T06:08:12.683Z,55.30
2018-09-08T06:10:40.631Z,55.50
2018-09-08T06:13:08.590Z,54.90
2018-09-08T06:15:36.537Z,54.20
2018-09-08T06:18:04.555Z,54.50
2018-09-08T06:20:32.472Z,54.40
2018-09-08T06:23:00.552Z,54.00
2018-09-08T06:25:28.556Z,53.50
2018-09-08T06:27:56.487Z,53.30
2018-09-08T06:30:24.414Z,53.40
2018-09-08T06:32:52.376Z,53.40
2018-09-08T06:35:20.369Z,53.10
2018-09-08T06:37:48.300Z,52.90
2018-09-08T06:40:16.250Z,53.40
2018-09-08T06:42:44.228Z,53.50
2018-09-08T06:45:12.245Z,53.30
2018-09-08T06:47:40.110Z,52.80
2018-09-08T06:50:08.094Z,53.10
2018-09-08T06:52:36.096Z,53.00
2018-09-08T06:55:04.039Z,52.90
2018-09-08T06:57:32.241Z,52.20
2018-09-08T07:00:00.275Z,52.00
2018-09-08T07:02:28.204Z,52.10
2018-09-08T07:04:56.172Z,52.00
2018-09-08T07:07:24.107Z,52.30
2018-09-08T07:09:52.082Z,52.50
2018-09-08T07:12:20.047Z,52.90
2018-09-08T07:14:48.058Z,52.60
2018-09-08T07:17:16.039Z,52.80
2018-09-08T07:19:43.991Z,52.90
2018-09-08T07:22:11.947Z,53.10
2018-09-08T07:24:40.555Z,52.10
2018-09-08T07:27:08.485Z,52.60
2018-09-08T07:29:36.442Z,52.70
2018-09-08T07:32:04.431Z,52.40
2018-09-08T07:34:32.395Z,52.30
2018-09-08T07:37:00.317Z,52.50
2018-09-08T07:39:28.272Z,52.20
2018-09-08T07:41:56.256Z,51.60
2018-09-08T07:44:24.348Z,51.10
2018-09-08T07:46:52.460Z,51.20
2018-09-08T07:49:20.536Z,50.90
2018-09-08T07:51:48.529Z,50.40
2018-09-08T07:54:16.485Z,50.70
2018-09-08T07:56:44.443Z,50.10
2018-09-08T07:59:12.410Z,49.70
2018-09-08T08:01:40.398Z,49.90
2018-09-08T08:04:08.589Z,49.60
2018-09-08T08:06:36.544Z,48.60
2018-09-08T08:09:06.010Z,48.70
2018-09-08T08:11:33.983Z,48.20
2018-09-08T08:14:01.963Z,48.50
2018-09-08T08:16:29.893Z,48.80
2018-09-08T08:18:57.835Z,48.60
2018-09-08T08:21:25.797Z,47.70
2018-09-08T08:23:53.764Z,47.80
2018-09-08T08:26:21.708Z,47.90
2018-09-08T08:28:49.666Z,47.90
2018-09-08T08:31:17.720Z,48.20
2018-09-08T08:33:45.628Z,48.30
2018-09-08T08:36:13.632Z,48.30
2018-09-08T08:38:41.617Z,48.30
2018-09-08T08:41:09.620Z,48.40
2018-09-08T08:43:37.829Z,48.60
2018-09-08T08:46:05.827Z,48.60
2018-09-08T08:48:33.837Z,48.50
2018-09-08T08:51:13.352Z,48.70
2018-09-08T08:53:52.884Z,48.90
2018-09-08T08:56:20.828Z,48.90
2018-09-08T08:58:48.868Z,48.80
2018-09-08T09:01:17.081Z,48.90
2018-09-08T09:03:46.056Z,49.30
2018-09-08T09:06:15.034Z,49.20
2018-09-08T09:08:43.418Z,49.30
2018-09-08T09:11:10.923Z,49.30
2018-09-08T09:16:12.015Z,49.20
2018-09-08T09:18:51.872Z,49.40
2018-09-08T09:21:30.808Z,49.30
2018-09-08T09:24:22.267Z,49.10
2018-09-08T09:26:49.935Z,49.30
2018-09-08T09:29:18.177Z,49.20
2018-09-08T09:31:46.223Z,49.40
2018-09-08T09:34:14.213Z,49.50
2018-09-08T09:36:42.953Z,49.20
2018-09-08T09:39:11.959Z,49.20
2018-09-08T09:41:41.184Z,49.30
2018-09-08T09:44:12.824Z,49.50
2018-09-08T09:46:40.932Z,49.30
2018-09-08T09:49:08.888Z,49.20
2018-09-08T09:51:36.852Z,49.30
2018-09-08T09:54:04.813Z,49.30
2018-09-08T09:56:32.743Z,49.30
2018-09-08T09:59:00.711Z,49.30
2018-09-08T10:01:34.032Z,49.10
2018-09-08T10:04:01.976Z,49.30
2018-09-08T10:06:29.998Z,49.30
2018-09-08T10:08:57.900Z,48.80
2018-09-08T10:11:25.852Z,48.90
2018-09-08T10:13:54.848Z,48.40
2018-09-08T10:16:22.784Z,48.30
2018-09-08T10:18:51.044Z,48.40
2018-09-08T10:21:19.005Z,48.00
2018-09-08T10:24:04.351Z,48.20
2018-09-08T10:26:14.939Z,48.10
2018-09-08T10:28:42.965Z,48.30
2018-09-08T10:31:11.175Z,48.10
2018-09-08T10:33:39.223Z,48.30
2018-09-08T10:36:07.163Z,47.90
2018-09-08T10:38:35.436Z,48.00
2018-09-08T10:41:03.372Z,47.60
2018-09-08T10:43:31.299Z,48.00
2018-09-08T10:45:59.243Z,48.20
2018-09-08T10:48:27.441Z,48.30
2018-09-08T10:50:55.406Z,48.20
2018-09-08T10:53:23.298Z,48.00
2018-09-08T10:55:51.247Z,47.60
2018-09-08T10:58:19.188Z,47.60
2018-09-08T11:00:47.176Z,47.20
2018-09-08T11:03:15.139Z,47.30
2018-09-08T11:05:43.072Z,47.20
2018-09-08T11:08:11.201Z,47.00
2018-09-08T11:10:39.193Z,47.00
2018-09-08T11:13:07.101Z,46.60
2018-09-08T11:15:38.527Z,47.00
2018-09-08T11:18:06.484Z,47.10
2018-09-08T11:20:34.452Z,46.80
2018-09-08T11:23:02.388Z,46.40
2018-09-08T11:25:30.528Z,46.50
2018-09-08T11:27:58.458Z,46.00
2018-09-08T11:30:26.427Z,46.00
2018-09-08T11:32:54.332Z,46.50
2018-09-08T11:35:22.348Z,45.70
2018-09-08T11:37:50.287Z,45.60
2018-09-08T11:40:18.479Z,45.60
2018-09-08T11:42:46.410Z,45.70
2018-09-08T11:45:14.334Z,45.20
2018-09-08T11:47:42.305Z,45.10
2018-09-08T11:50:10.508Z,45.10
2018-09-08T11:52:39.446Z,45.40
2018-09-08T11:55:07.405Z,45.60
2018-09-08T11:57:36.460Z,45.40
2018-09-08T12:00:05.056Z,45.20
2018-09-08T12:02:33.289Z,45.00
2018-09-08T12:05:01.236Z,44.50
2018-09-08T12:07:29.217Z,44.70
2018-09-08T12:09:57.172Z,44.10
2018-09-08T12:12:25.140Z,44.40
2018-09-08T12:14:53.445Z,43.50
2018-09-08T12:17:21.380Z,43.90
2018-09-08T12:19:49.394Z,44.10
2018-09-08T12:22:17.443Z,44.10
2018-09-08T12:24:45.290Z,43.80
2018-09-08T12:27:13.280Z,43.60
2018-09-08T12:29:41.251Z,44.00
2018-09-08T12:32:09.214Z,43.60
2018-09-08T12:34:37.144Z,43.70
2018-09-08T12:37:05.211Z,43.60
2018-09-08T12:39:33.093Z,43.80
2018-09-08T12:42:01.055Z,43.90
2018-09-08T12:44:29.334Z,43.90
2018-09-08T12:46:57.282Z,44.00
2018-09-08T12:49:25.220Z,44.20
2018-09-08T12:51:53.162Z,44.00
2018-09-08T12:54:21.082Z,44.20
2018-09-08T12:56:49.084Z,44.30
2018-09-08T12:59:17.019Z,44.30
2018-09-08T13:01:44.954Z,44.60
2018-09-08T13:04:12.923Z,44.30
2018-09-08T13:06:40.893Z,44.60
2018-09-08T13:09:08.858Z,43.70
2018-09-08T13:11:36.834Z,43.60
2018-09-08T13:14:04.842Z,43.60
2018-09-08T13:16:32.797Z,43.60
2018-09-08T13:19:00.763Z,43.60
2018-09-08T13:21:28.724Z,43.90
2018-09-08T13:23:56.723Z,44.30
2018-09-08T13:26:24.885Z,44.30
2018-09-08T13:28:52.828Z,44.30
2018-09-08T13:31:20.742Z,44.10
2018-09-08T13:33:48.737Z,44.20
2018-09-08T13:36:16.622Z,44.30
2018-09-08T13:38:44.943Z,44.40
2018-09-08T13:41:12.887Z,44.50
2018-09-08T13:43:40.876Z,44.50
2018-09-08T13:46:08.983Z,44.20
2018-09-08T13:48:36.930Z,43.70
2018-09-08T13:51:05.052Z,43.50
2018-09-08T13:53:33.022Z,43.40
2018-09-08T13:56:01.527Z,43.70
2018-09-08T13:58:29.485Z,44.00
2018-09-08T14:00:57.731Z,43.70
2018-09-08T14:03:25.695Z,43.90
2018-09-08T14:05:53.647Z,43.40
2018-09-08T14:08:21.587Z,43.20
2018-09-08T14:10:50.157Z,42.90
2018-09-08T14:13:18.093Z,43.30
2018-09-08T14:15:46.126Z,43.20
2018-09-08T14:18:14.064Z,42.90
2018-09-08T14:20:42.151Z,42.80
2018-09-08T14:23:11.355Z,43.00
2018-09-08T14:25:39.284Z,43.10
2018-09-08T14:28:07.218Z,42.80
2018-09-08T14:30:35.410Z,42.70
2018-09-08T14:33:03.384Z,42.60
2018-09-08T14:35:31.358Z,42.20
2018-09-08T14:37:59.327Z,42.20
2018-09-08T14:40:27.398Z,42.30
2018-09-08T14:42:55.544Z,42.20
2018-09-08T14:45:23.509Z,41.60
2018-09-08T14:47:51.628Z,42.00
2018-09-08T14:50:19.662Z,42.10
2018-09-08T14:52:47.771Z,42.00
2018-09-08T14:55:15.776Z,41.80
2018-09-08T14:57:43.776Z,42.20
2018-09-08T15:00:11.728Z,41.80
2018-09-08T15:02:39.666Z,41.90
2018-09-08T15:05:07.705Z,42.00
2018-09-08T15:07:35.588Z,41.90
2018-09-08T15:10:03.581Z,42.10
2018-09-08T15:12:31.534Z,42.30
2018-09-08T15:14:59.781Z,42.50
2018-09-08T15:17:27.732Z,42.10
2018-09-08T15:19:55.659Z,41.80
2018-09-08T15:22:23.875Z,42.10
2018-09-08T15:24:51.824Z,42.40
2018-09-08T15:27:19.742Z,42.60
2018-09-08T15:29:47.701Z,42.80
2018-09-08T15:32:15.669Z,43.00
2018-09-08T15:34:43.634Z,43.10
2018-09-08T15:37:11.629Z,42.90
2018-09-08T15:39:39.594Z,42.60
2018-09-08T15:42:07.641Z,42.90
2018-09-08T15:44:35.611Z,43.00
2018-09-08T15:47:03.668Z,43.10
2018-09-08T15:49:31.672Z,42.80
2018-09-08T15:52:00.320Z,42.80
2018-09-08T15:54:28.549Z,42.70
2018-09-08T15:56:56.487Z,43.10
2018-09-08T15:59:24.450Z,43.00
2018-09-08T16:01:52.444Z,43.00
2018-09-08T16:04:20.414Z,43.10
2018-09-08T16:06:48.355Z,42.90
2018-09-08T16:09:16.372Z,42.70
2018-09-08T16:11:44.388Z,42.90
2018-09-08T16:14:12.667Z,43.00
2018-09-08T16:16:41.548Z,43.10
2018-09-08T16:19:09.503Z,43.30
2018-09-08T16:21:37.459Z,43.30
2018-09-08T16:24:06.213Z,43.50
2018-09-08T16:26:34.188Z,43.50
2018-09-08T16:29:02.155Z,43.60
2018-09-08T16:31:30.179Z,43.80
2018-09-08T16:33:58.151Z,43.80
2018-09-08T16:36:26.099Z,43.90
2018-09-08T16:38:54.032Z,44.00
2018-09-08T16:41:21.971Z,44.10
2018-09-08T16:43:49.940Z,44.30
2018-09-08T16:46:17.881Z,44.30
2018-09-08T16:48:45.904Z,44.40
2018-09-08T16:51:13.946Z,44.50
2018-09-08T16:53:41.959Z,44.30
2018-09-08T16:56:09.955Z,44.60
2018-09-08T16:58:37.908Z,44.80
2018-09-08T17:01:06.191Z,44.70
2018-09-08T17:03:34.123Z,44.70
2018-09-08T17:06:02.073Z,45.60
2018-09-08T17:08:30.041Z,45.20
2018-09-08T17:10:58.004Z,45.70
2018-09-08T17:13:25.976Z,46.10
2018-09-08T17:15:54.069Z,46.30
2018-09-08T17:18:22.155Z,46.70
2018-09-08T17:20:50.116Z,46.80
2018-09-08T17:23:18.432Z,47.10
2018-09-08T17:25:46.362Z,47.20
2018-09-08T17:28:14.419Z,46.80
2018-09-08T17:30:42.349Z,46.90
2018-09-08T17:33:10.380Z,47.20
2018-09-08T17:35:38.341Z,47.30
2018-09-08T17:38:06.336Z,47.50
2018-09-08T17:40:34.397Z,47.80
2018-09-08T17:43:02.433Z,48.10
2018-09-08T17:45:30.400Z,48.40
2018-09-08T17:47:58.382Z,48.90
2018-09-08T17:50:26.384Z,49.20
2018-09-08T17:52:54.429Z,49.80
2018-09-08T17:55:22.643Z,50.30
2018-09-08T17:57:50.717Z,50.60
2018-09-08T18:00:18.641Z,50.70
2018-09-08T18:02:46.655Z,51.10
2018-09-08T18:05:14.599Z,51.20
2018-09-08T18:07:42.544Z,51.40
2018-09-08T18:10:10.526Z,51.30
2018-09-08T18:12:38.516Z,51.40
2018-09-08T18:15:06.918Z,51.50
2018-09-08T18:17:35.136Z,51.50
2018-09-08T18:20:03.060Z,51.50
2018-09-08T18:22:31.016Z,51.40
2018-09-08T18:24:59.052Z,51.40
2018-09-08T18:27:27.074Z,51.50
2018-09-08T18:29:55.100Z,51.60
2018-09-08T18:32:23.046Z,51.70
2018-09-08T18:34:51.046Z,51.90
2018-09-08T18:37:19.004Z,52.30
2018-09-08T18:39:46.947Z,52.40
2018-09-08T18:42:14.984Z,52.50
2018-09-08T18:44:42.953Z,52.80
2018-09-08T18:47:10.908Z,52.90
2018-09-08T18:49:38.839Z,52.80
2018-09-08T18:52:06.793Z,52.80
2018-09-08T18:54:34.780Z,52.70
2018-09-08T18:57:02.716Z,52.60
2018-09-08T18:59:30.723Z,52.50
2018-09-08T19:01:58.738Z,52.40
2018-09-08T19:04:26.737Z,52.50
2018-09-08T19:06:55.380Z,52.40
2018-09-08T19:09:23.340Z,52.30
2018-09-08T19:11:51.369Z,52.30
2018-09-08T19:14:24.910Z,52.20
2018-09-08T19:16:52.838Z,52.30
2018-09-08T19:19:20.794Z,52.40
2018-09-08T19:21:48.844Z,52.50
2018-09-08T19:24:22.217Z,52.50
2018-09-08T19:26:50.277Z,52.60
2018-09-08T19:29:23.635Z,52.70
2018-09-08T19:31:52.611Z,52.80
2018-09-08T19:34:20.662Z,53.00
2018-09-08T19:36:48.656Z,53.10
2018-09-08T19:39:20.268Z,53.40
2018-09-08T19:41:49.004Z,53.30
2018-09-08T19:44:17.001Z,53.30
2018-09-08T19:46:50.468Z,53.40
2018-09-08T19:49:18.398Z,53.40
2018-09-08T19:51:46.331Z,53.50
2018-09-08T19:54:18.162Z,54.40
2018-09-08T19:56:51.515Z,53.60
2018-09-08T19:59:19.494Z,53.60
2018-09-08T20:01:47.559Z,53.60
2018-09-08T20:04:15.780Z,53.70
2018-09-08T20:06:43.795Z,53.70
2018-09-08T20:09:11.744Z,53.60
2018-09-08T20:11:39.710Z,53.70
2018-09-08T20:14:07.659Z,54.40
2018-09-08T20:16:35.671Z,54.90
2018-09-08T20:19:03.604Z,55.00
2018-09-08T20:21:31.550Z,55.10
2018-09-08T20:23:59.592Z,55.10
2018-09-08T20:26:27.658Z,55.20
2018-09-08T20:28:55.622Z,55.10
2018-09-08T20:31:23.529Z,55.00
2018-09-08T20:33:51.560Z,54.80
2018-09-08T20:36:19.597Z,54.80
2018-09-08T20:38:47.529Z,54.90
2018-09-08T20:41:15.474Z,54.60
2018-09-08T20:43:43.442Z,54.40
2018-09-08T20:46:11.412Z,54.30
2018-09-08T20:48:39.382Z,54.20
2018-09-08T20:51:07.328Z,53.90
2018-09-08T20:53:35.284Z,53.70
2018-09-08T20:56:03.245Z,53.60
2018-09-08T20:58:31.251Z,53.60
2018-09-08T21:00:59.183Z,53.70
2018-09-08T21:03:27.125Z,53.90
2018-09-08T21:05:55.092Z,53.80
2018-09-08T21:08:23.291Z,53.80
2018-09-08T21:10:51.297Z,53.80
2018-09-08T21:13:19.255Z,53.80
2018-09-08T21:15:47.195Z,53.80
2018-09-08T21:18:15.210Z,53.80
2018-09-08T21:20:43.188Z,53.80
2018-09-08T21:23:11.147Z,53.80
2018-09-08T21:25:44.718Z,53.80
2018-09-08T21:28:12.656Z,53.70
2018-09-08T21:30:40.742Z,53.50
2018-09-08T21:33:08.702Z,54.10
2018-09-08T21:35:36.671Z,53.30
2018-09-08T21:38:04.642Z,53.30
2018-09-08T21:40:32.582Z,53.20
2018-09-08T21:43:00.572Z,53.10
2018-09-08T21:45:28.616Z,52.90
2018-09-08T21:47:56.563Z,53.00
2018-09-08T21:50:24.580Z,53.00
2018-09-08T21:52:52.791Z,53.00
2018-09-08T21:55:20.730Z,52.90
2018-09-08T21:57:48.766Z,52.80
2018-09-08T22:00:16.736Z,52.80
2018-09-08T22:02:44.709Z,52.90
2018-09-08T22:05:12.644Z,52.80
2018-09-08T22:07:40.645Z,52.80
2018-09-08T22:10:08.662Z,52.80
2018-09-08T22:12:36.680Z,52.90
2018-09-08T22:15:04.734Z,53.00
2018-09-08T22:17:32.675Z,53.10
2018-09-08T22:20:00.616Z,53.20
2018-09-08T22:22:28.563Z,53.40
2018-09-08T22:24:56.511Z,53.50
2018-09-08T22:27:24.551Z,53.60
2018-09-08T22:29:52.762Z,53.60
2018-09-08T22:32:20.769Z,53.70
2018-09-08T22:34:48.709Z,53.80
2018-09-08T22:37:16.714Z,53.80
2018-09-08T22:39:44.664Z,53.80
2018-09-08T22:42:12.611Z,53.80
2018-09-08T22:44:40.569Z,53.90
2018-09-08T22:47:08.839Z,54.00
2018-09-08T22:49:36.764Z,54.20
2018-09-08T22:52:04.761Z,54.30
2018-09-08T22:54:32.716Z,54.20
2018-09-08T22:57:01.319Z,54.20
2018-09-08T22:59:29.282Z,54.10
2018-09-08T23:01:57.222Z,54.20
2018-09-08T23:04:25.209Z,54.20
2018-09-08T23:06:53.140Z,54.20
2018-09-08T23:09:21.094Z,54.20
2018-09-08T23:11:49.078Z,54.20
2018-09-08T23:14:17.028Z,54.30
2018-09-08T23:16:44.993Z,54.40
2018-09-08T23:19:12.920Z,54.40
2018-09-08T23:21:41.120Z,54.50
2018-09-08T23:24:09.039Z,54.50
2018-09-08T23:26:36.983Z,54.30
2018-09-08T23:29:04.996Z,54.30
2018-09-08T23:31:32.969Z,54.30
2018-09-08T23:34:00.886Z,54.30
2018-09-08T23:36:28.830Z,54.40
2018-09-08T23:38:56.760Z,54.30
2018-09-08T23:41:24.695Z,54.30
2018-09-08T23:43:52.741Z,54.20
2018-09-08T23:46:20.776Z,54.10
2018-09-08T23:48:48.727Z,54.40
2018-09-08T23:51:16.664Z,54.50
2018-09-08T23:53:44.731Z,54.60
2018-09-08T23:56:12.680Z,54.60
2018-09-08T23:58:40.633Z,54.60
